Date,TemperatureHighF,TemperatureAvgF,TemperatureLowF,DewpointHighF,DewpointAvgF,DewpointLowF,HumidityHigh,HumidityAvg,HumidityLow,PressureMaxIn,PressureMinIn,WindSpeedMaxMPH,WindSpeedAvgMPH,GustSpeedMaxMPH,PrecipitationSumIn
2013-7-1,86.3,80.1,70.9,99.9,99.9,99.9,0,0,100,30.01,29.91,16,4,16,0.00
2013-7-2,90.7,81.6,72.1,99.9,99.9,99.9,0,0,100,30.07,29.98,12,2,12,0.00
2013-7-3,91.0,81.4,72.3,99.9,99.9,99.9,0,0,100,30.09,29.97,14,2,14,0.00
2013-7-4,91.4,82.3,71.1,99.9,99.9,99.9,0,0,100,30.06,29.96,15,2,15,0.00
2013-7-5,93.6,82.9,73.9,99.9,99.9,99.9,0,0,100,30.05,29.93,20,4,21,0.00
2013-7-6,91.0,82.1,74.7,99.9,99.9,99.9,0,0,100,30.02,29.94,15,4,15,0.00
2013-7-7,88.0,81.8,78.3,99.9,99.9,99.9,0,0,100,30.09,29.99,20,3,20,0.05
2013-7-8,90.3,83.0,78.8,99.9,99.9,99.9,0,0,100,30.20,30.09,16,1,16,0.03
2013-7-9,94.0,85.6,78.1,99.9,99.9,99.9,0,0,100,30.22,30.12,16,2,16,0.00
2013-7-10,93.2,85.3,78.1,99.9,99.9,99.9,0,0,100,30.16,30.03,18,2,18,0.00
2013-7-11,94.3,84.5,77.9,99.9,99.9,99.9,0,0,100,30.09,29.97,15,2,15,0.01
2013-7-12,95.9,84.6,78.3,99.9,99.9,99.9,0,0,100,30.04,29.91,17,2,17,0.04
2013-7-13,95.4,85.2,77.0,99.9,99.9,99.9,0,0,100,30.02,29.90,14,1,14,0.00
2013-7-14,89.5,82.3,77.6,99.9,99.9,99.9,0,0,100,30.03,29.95,14,1,14,0.00
2013-7-15,89.9,82.6,75.8,99.9,99.9,99.9,0,0,100,30.15,29.98,19,4,19,0.20
2013-7-16,87.6,79.8,74.0,99.9,99.9,99.9,0,0,100,30.22,30.11,22,4,22,0.45
2013-7-17,87.8,80.3,75.1,99.9,99.9,99.9,0,0,100,30.27,30.17,15,2,15,0.18
2013-7-18,93.4,82.3,74.4,99.9,99.9,99.9,0,0,100,30.22,30.05,33,3,33,0.04
2013-7-19,88.8,77.8,74.4,99.9,99.9,99.9,0,0,100,30.15,30.03,26,2,26,0.04
2013-7-20,88.0,78.6,74.0,99.9,99.9,99.9,0,0,100,30.08,29.96,12,1,12,0.91
2013-7-21,87.0,80.8,74.6,99.9,99.9,99.9,0,0,100,30.10,30.01,29,3,29,1.54
2013-7-22,91.8,85.8,80.9,99.9,99.9,99.9,0,0,100,30.10,30.04,19,4,19,0.00
2013-7-23,93.4,85.4,80.1,99.9,99.9,99.9,0,0,100,30.12,29.99,19,5,19,0.00
2013-7-24,94.0,85.1,78.5,99.9,99.9,99.9,0,0,100,30.08,29.94,18,4,18,0.00
2013-7-25,94.3,86.0,80.3,99.9,99.9,99.9,0,0,100,30.10,30.02,15,2,15,0.00
2013-7-26,93.6,85.8,79.9,99.9,99.9,99.9,0,0,100,30.12,30.00,18,3,18,0.00
2013-7-27,93.6,84.1,77.9,99.9,99.9,99.9,0,0,100,30.04,29.92,20,5,20,2.88
2013-7-28,92.1,82.6,76.8,99.9,99.9,99.9,0,0,100,30.07,29.98,15,2,15,0.01
2013-7-29,94.0,85.9,80.1,99.9,99.9,99.9,0,0,100,30.17,30.06,16,2,16,0.00
2013-7-30,93.4,85.4,78.8,99.9,99.9,99.9,0,0,100,30.20,30.11,16,2,16,0.00
2013-7-31,94.7,84.9,77.6,99.9,99.9,99.9,0,0,100,30.17,30.03,16,2,16,0.00